Sanford, California
Current Conditions -  °F | °C
As of 6:47 PM on Wednesday 22 Oct 2014 (Local Time) from KCQT Reporting Station
Clear Clear  
Wind Chill: 71°   Ceiling: Unl
Heat Index: 71°   Visibility: 10mi
Dew Point: 60°   Wind: 3mph
Humidity: 68%   Direction: 280°W
Pressure: 29.91"   Gusts: NA
Location:  34.0664°N, 118.31°W
Report Text: KCQT 230147Z AUTO 28003KT 10SM CLR 22/16 A2991 RMK AO2 SLP126 T02170156
Loading
Personal Weather Stations






























Interactive Weather Map
Tropical Storm Tracking
New forecast layout! Learn more

10-Day Weather Forecast

Advertisements
Track Severe Weather on mobile